Time;durP1;ratioP1;P1;durP2;ratioP2;P2;SDS_P1;SDS_P2;PMS_P1;PMS_P2;Temp;Humidity;BMP_temperature;BMP_pressure;BME280_temperature;BME280_humidity;BME280_pressure;Samples;Min_cycle;Max_cycle;Signal;HPM_P1;HPM_P2
2023/10/22 00:00:13;;;;;;;2.63;1.10;;;16.30;99.90;;;;;;4992298;28;20026;-42
2023/10/22 00:02:39;;;;;;;2.13;1.10;;;16.30;99.90;;;;;;4992136;28;20088;-41
2023/10/22 00:05:06;;;;;;;1.45;0.95;;;16.30;99.90;;;;;;4992107;28;20022;-40
2023/10/22 00:07:32;;;;;;;1.33;0.88;;;16.30;99.90;;;;;;4992105;28;20026;-46
2023/10/22 00:09:58;;;;;;;1.95;0.98;;;16.30;99.90;;;;;;4992206;28;20512;-42
2023/10/22 00:12:24;;;;;;;2.10;1.05;;;16.30;99.90;;;;;;4992115;28;20077;-41
2023/10/22 00:14:50;;;;;;;1.33;0.77;;;16.30;99.90;;;;;;4992014;28;20347;-42
2023/10/22 00:17:16;;;;;;;1.95;0.98;;;16.30;99.90;;;;;;4991926;28;20070;-42
2023/10/22 00:19:41;;;;;;;1.30;1.00;;;16.30;99.90;;;;;;4991931;28;20022;-40
2023/10/22 00:22:08;;;;;;;1.95;1.13;;;16.30;99.90;;;;;;4991905;28;20472;-41
2023/10/22 00:24:34;;;;;;;3.00;0.85;;;16.30;99.90;;;;;;4991975;28;20109;-42
2023/10/22 00:27:00;;;;;;;1.02;0.90;;;16.30;99.90;;;;;;4992116;28;20140;-40
2023/10/22 00:29:26;;;;;;;1.95;1.00;;;16.30;99.90;;;;;;4991979;28;20426;-40
2023/10/22 00:31:52;;;;;;;2.10;0.82;;;16.30;99.90;;;;;;4991967;28;20026;-46
2023/10/22 00:34:17;;;;;;;1.95;1.10;;;16.30;99.90;;;;;;4991619;28;20026;-42
2023/10/22 00:36:44;;;;;;;0.90;0.75;;;16.30;99.90;;;;;;4991732;28;20073;-40
2023/10/22 00:39:10;;;;;;;1.55;0.90;;;16.30;99.90;;;;;;4991894;28;20090;-38
2023/10/22 00:41:36;;;;;;;0.90;0.70;;;16.30;99.90;;;;;;4991916;28;20031;-37
2023/10/22 00:44:01;;;;;;;1.27;0.85;;;16.20;99.90;;;;;;4991633;28;20034;-40
2023/10/22 00:46:28;;;;;;;1.73;1.15;;;16.30;99.90;;;;;;4991690;28;20030;-38
2023/10/22 00:48:55;;;;;;;2.90;1.00;;;16.20;99.90;;;;;;4991715;28;20022;-39
2023/10/22 00:51:21;;;;;;;1.48;0.80;;;16.20;99.90;;;;;;4991713;28;20040;-40
2023/10/22 00:53:47;;;;;;;1.77;0.85;;;16.20;99.90;;;;;;4991740;28;20034;-44
2023/10/22 00:56:14;;;;;;;2.28;0.90;;;16.20;99.90;;;;;;4991390;28;20053;-42
2023/10/22 00:58:41;;;;;;;3.00;1.02;;;16.20;99.90;;;;;;4991744;28;20053;-42
2023/10/22 01:01:07;;;;;;;1.48;0.80;;;16.20;99.90;;;;;;4992210;28;20031;-39
2023/10/22 01:03:35;;;;;;;1.52;0.90;;;16.20;99.90;;;;;;4991556;28;20022;-40
2023/10/22 01:06:04;;;;;;;1.50;0.80;;;16.20;99.90;;;;;;4991486;28;20097;-38
2023/10/22 01:08:33;;;;;;;1.40;0.90;;;16.20;99.90;;;;;;4991560;28;20081;-37
2023/10/22 01:11:06;;;;;;;1.85;1.00;;;16.20;99.90;;;;;;4991626;28;20038;-38
2023/10/22 01:13:32;;;;;;;2.42;0.80;;;16.20;99.90;;;;;;4991556;28;20027;-39
2023/10/22 01:15:58;;;;;;;1.40;0.90;;;16.20;99.90;;;;;;4991268;28;20125;-38
2023/10/22 01:18:24;;;;;;;0.93;0.70;;;16.20;99.90;;;;;;4993628;28;20018;-37
2023/10/22 01:20:50;;;;;;;2.45;0.80;;;16.20;99.90;;;;;;4995267;28;20026;-39
2023/10/22 01:23:16;;;;;;;1.88;1.00;;;16.20;99.90;;;;;;4995091;28;20028;-39
2023/10/22 01:25:41;;;;;;;1.20;0.80;;;16.20;99.90;;;;;;4995098;28;20423;-38
2023/10/22 01:28:07;;;;;;;1.52;0.82;;;16.20;99.90;;;;;;4995007;28;20031;-38
2023/10/22 01:30:33;;;;;;;1.20;0.77;;;16.20;99.90;;;;;;4994947;28;20030;-37
2023/10/22 01:32:58;;;;;;;0.70;0.60;;;16.20;99.90;;;;;;4993620;28;20026;-38
2023/10/22 01:35:24;;;;;;;2.72;0.75;;;16.20;99.90;;;;;;4994780;28;20026;-38
2023/10/22 01:37:49;;;;;;;2.80;0.90;;;16.20;99.90;;;;;;4994696;28;20476;-37
2023/10/22 01:40:15;;;;;;;1.02;0.73;;;16.20;99.90;;;;;;4994829;28;20069;-39
2023/10/22 01:42:41;;;;;;;1.67;0.90;;;16.20;99.90;;;;;;4995119;28;20058;-38
2023/10/22 01:45:07;;;;;;;1.67;0.90;;;16.20;99.90;;;;;;4994587;28;20049;-37
2023/10/22 01:47:51;;;;;;;;;;;16.20;99.90;;;;;;4999506;28;20069;-37
2023/10/22 01:50:16;;;;;;;0.90;0.80;;;16.20;99.90;;;;;;4994716;28;20364;-37
2023/10/22 01:52:42;;;;;;;1.33;0.80;;;16.10;99.90;;;;;;4994598;28;20038;-38
2023/10/22 01:55:08;;;;;;;0.95;0.73;;;16.20;99.90;;;;;;4994557;28;20068;-37
2023/10/22 01:57:34;;;;;;;1.00;0.80;;;16.20;99.90;;;;;;4994294;28;20049;-37
2023/10/22 01:59:59;;;;;;;1.60;0.65;;;16.20;99.90;;;;;;4994480;28;20476;-35
2023/10/22 02:02:25;;;;;;;1.85;0.80;;;16.20;99.90;;;;;;4994364;28;20534;-39
2023/10/22 02:04:52;;;;;;;0.85;0.65;;;16.20;99.90;;;;;;4994528;28;20033;-39
2023/10/22 02:07:17;;;;;;;1.65;0.90;;;16.20;99.90;;;;;;4994248;28;20462;-39
2023/10/22 02:09:43;;;;;;;1.58;0.73;;;16.20;99.90;;;;;;4994355;28;20113;-35
2023/10/22 02:12:09;;;;;;;1.65;0.80;;;16.20;99.90;;;;;;4994067;28;20034;-35
2023/10/22 02:14:34;;;;;;;1.58;0.82;;;16.20;99.90;;;;;;4994396;28;20088;-36
2023/10/22 02:17:00;;;;;;;1.25;0.70;;;16.20;99.90;;;;;;4993929;28;20026;-38
2023/10/22 02:19:26;;;;;;;1.40;0.80;;;16.20;99.90;;;;;;4994048;28;20019;-41
2023/10/22 02:21:53;;;;;;;1.95;0.75;;;16.20;99.90;;;;;;4993987;28;20539;-39
2023/10/22 02:24:19;;;;;;;1.42;0.80;;;16.10;99.90;;;;;;4993984;28;20133;-35
2023/10/22 02:26:45;;;;;;;1.27;0.70;;;16.20;99.90;;;;;;4993882;28;20396;-37
2023/10/22 02:29:12;;;;;;;1.10;0.80;;;16.20;99.90;;;;;;4993652;28;20026;-35
2023/10/22 02:31:37;;;;;;;1.80;0.90;;;16.20;99.90;;;;;;4993904;28;20113;-35
2023/10/22 02:34:07;;;;;;;2.15;0.70;;;16.20;99.90;;;;;;4994101;28;20161;-35
2023/10/22 02:36:33;;;;;;;1.45;0.75;;;16.20;99.90;;;;;;4993525;28;20033;-35
2023/10/22 02:39:00;;;;;;;1.80;0.90;;;16.20;99.90;;;;;;4993741;28;20105;-35
2023/10/22 02:41:28;;;;;;;1.52;0.80;;;16.20;99.90;;;;;;4993600;28;20033;-37
2023/10/22 02:43:55;;;;;;;3.22;0.90;;;16.10;99.90;;;;;;4993523;28;20076;-35
2023/10/22 02:46:20;;;;;;;1.20;0.70;;;16.10;99.90;;;;;;4993627;28;20031;-40
2023/10/22 02:48:46;;;;;;;2.85;0.85;;;16.10;99.90;;;;;;4992606;28;20037;-37
2023/10/22 02:51:12;;;;;;;1.13;0.60;;;16.10;99.90;;;;;;4993536;28;20035;-38
2023/10/22 02:53:38;;;;;;;1.48;0.90;;;16.10;99.90;;;;;;4993440;28;20026;-38
2023/10/22 02:56:04;;;;;;;0.93;0.60;;;16.10;99.90;;;;;;4993077;28;20038;-37
2023/10/22 02:58:30;;;;;;;1.40;0.70;;;16.10;99.90;;;;;;4993417;28;20040;-37
2023/10/22 03:01:04;;;;;;;2.28;1.00;;;16.10;99.90;;;;;;4993365;28;20030;-37
2023/10/22 03:03:30;;;;;;;1.35;0.68;;;16.10;99.90;;;;;;4993344;28;20030;-35
2023/10/22 03:05:59;;;;;;;1.45;0.70;;;16.10;99.90;;;;;;4993107;28;20022;-34
2023/10/22 03:08:25;;;;;;;2.30;0.80;;;16.10;99.90;;;;;;4993094;28;20445;-35
2023/10/22 03:10:51;;;;;;;1.13;0.80;;;16.10;99.90;;;;;;4993200;28;20472;-36
2023/10/22 03:13:16;;;;;;;1.75;0.80;;;16.10;99.90;;;;;;4993095;28;20037;-35
2023/10/22 03:15:42;;;;;;;1.10;0.75;;;16.10;99.90;;;;;;4993162;28;20030;-35
2023/10/22 03:18:08;;;;;;;1.27;0.75;;;16.10;99.90;;;;;;4993015;28;20130;-35
2023/10/22 03:20:33;;;;;;;0.65;0.50;;;16.10;99.90;;;;;;4992955;28;20061;-36
2023/10/22 03:23:01;;;;;;;1.00;0.75;;;16.10;99.90;;;;;;4992748;28;20384;-38
2023/10/22 03:25:27;;;;;;;1.50;0.88;;;16.10;99.90;;;;;;4992853;28;20092;-34
2023/10/22 03:27:52;;;;;;;0.98;0.68;;;16.10;99.90;;;;;;4992952;28;20482;-35
2023/10/22 03:30:18;;;;;;;1.38;0.88;;;16.10;99.90;;;;;;4993306;28;20038;-36
2023/10/22 03:32:44;;;;;;;1.35;0.60;;;16.10;99.90;;;;;;4992822;28;20033;-37
2023/10/22 03:35:11;;;;;;;1.65;0.65;;;16.10;99.90;;;;;;4992564;28;20117;-36
2023/10/22 03:37:36;;;;;;;1.35;0.80;;;16.10;99.90;;;;;;4992455;28;20108;-35
2023/10/22 03:40:06;;;;;;;0.90;0.70;;;16.10;99.90;;;;;;4991965;28;20076;-36
2023/10/22 03:42:32;;;;;;;1.60;0.93;;;16.00;99.90;;;;;;4992346;28;20034;-39
2023/10/22 03:44:57;;;;;;;1.50;0.75;;;16.10;99.90;;;;;;4992491;28;20027;-40
2023/10/22 03:47:23;;;;;;;1.63;0.75;;;16.00;99.90;;;;;;4992463;28;20066;-38
2023/10/22 03:49:48;;;;;;;1.63;0.80;;;16.00;99.90;;;;;;4992444;28;20053;-38
2023/10/22 03:52:14;;;;;;;1.08;0.60;;;16.00;99.90;;;;;;4992210;28;20026;-38
2023/10/22 03:54:40;;;;;;;3.65;0.90;;;16.00;99.90;;;;;;4992294;28;20483;-38
2023/10/22 03:57:05;;;;;;;2.40;0.80;;;16.00;99.90;;;;;;4992180;28;20037;-38
2023/10/22 03:59:31;;;;;;;1.10;0.80;;;16.00;99.90;;;;;;4992429;28;20101;-41
2023/10/22 04:01:56;;;;;;;2.22;0.90;;;16.00;99.90;;;;;;4992197;28;20077;-40
2023/10/22 04:04:22;;;;;;;1.95;0.80;;;16.00;99.90;;;;;;4992212;28;20439;-37
2023/10/22 04:06:48;;;;;;;1.60;0.80;;;16.00;99.90;;;;;;4992068;28;20053;-35
2023/10/22 04:09:13;;;;;;;1.02;0.60;;;16.00;99.90;;;;;;4992246;28;20030;-35
2023/10/22 04:11:39;;;;;;;1.35;0.60;;;16.00;99.90;;;;;;4990845;28;20120;-35
2023/10/22 04:14:04;;;;;;;1.58;0.90;;;16.00;99.90;;;;;;4992006;28;20037;-38
2023/10/22 04:16:30;;;;;;;1.27;0.80;;;16.00;99.90;;;;;;4991784;28;20041;-35
2023/10/22 04:18:56;;;;;;;4.18;0.80;;;16.00;99.90;;;;;;4992035;28;20105;-35
2023/10/22 04:21:21;;;;;;;1.35;0.75;;;16.00;99.90;;;;;;4991860;28;20114;-38
2023/10/22 04:23:47;;;;;;;1.75;0.82;;;16.00;99.90;;;;;;4992002;28;20066;-38
2023/10/22 04:26:14;;;;;;;1.42;0.63;;;15.90;99.90;;;;;;4991938;28;20038;-35
2023/10/22 04:28:43;;;;;;;1.67;0.80;;;16.00;99.90;;;;;;4992001;28;20165;-36
2023/10/22 04:31:11;;;;;;;1.45;0.82;;;15.90;99.90;;;;;;4991941;28;20093;-35
2023/10/22 04:33:37;;;;;;;1.58;0.82;;;15.90;99.90;;;;;;4991826;28;20365;-37
2023/10/22 04:36:04;;;;;;;1.55;0.77;;;15.90;99.90;;;;;;4991549;28;20165;-40
2023/10/22 04:38:30;;;;;;;0.88;0.60;;;15.90;99.90;;;;;;4991915;28;20022;-38
2023/10/22 04:40:56;;;;;;;1.23;0.80;;;15.90;99.90;;;;;;4991875;28;20105;-35
2023/10/22 04:43:22;;;;;;;1.90;0.70;;;15.90;99.90;;;;;;4991651;28;20561;-34
2023/10/22 04:45:49;;;;;;;1.90;0.63;;;15.90;99.90;;;;;;4991747;28;20050;-38
2023/10/22 04:48:14;;;;;;;1.80;0.63;;;15.90;99.90;;;;;;4991669;28;20026;-35
2023/10/22 04:50:41;;;;;;;1.95;0.80;;;15.90;99.90;;;;;;4991685;28;20487;-35
2023/10/22 04:53:07;;;;;;;1.02;0.70;;;15.90;99.90;;;;;;4995205;28;20033;-35
2023/10/22 04:55:32;;;;;;;1.20;0.88;;;15.90;99.90;;;;;;4995717;28;20030;-35
2023/10/22 04:57:58;;;;;;;1.23;0.65;;;15.90;99.90;;;;;;4995485;28;20070;-36
2023/10/22 05:00:24;;;;;;;0.60;0.50;;;15.90;99.90;;;;;;4995590;28;20073;-38
2023/10/22 05:02:50;;;;;;;1.25;0.65;;;15.90;99.90;;;;;;4995353;28;20492;-41
2023/10/22 05:05:15;;;;;;;1.42;0.70;;;15.90;99.90;;;;;;4995406;28;20033;-35
2023/10/22 05:07:41;;;;;;;1.52;0.60;;;15.90;99.90;;;;;;4995569;28;20550;-35
2023/10/22 05:10:07;;;;;;;0.70;0.43;;;15.90;99.90;;;;;;4995489;28;20077;-35
2023/10/22 05:12:33;;;;;;;0.75;0.57;;;15.90;99.90;;;;;;4995359;28;20073;-35
2023/10/22 05:14:59;;;;;;;2.63;0.95;;;15.90;99.90;;;;;;4995311;28;20034;-35
2023/10/22 05:17:24;;;;;;;1.35;0.77;;;15.90;99.90;;;;;;4995076;28;20424;-38
2023/10/22 05:19:50;;;;;;;1.50;0.70;;;15.90;99.90;;;;;;4995243;28;20027;-37
2023/10/22 05:22:17;;;;;;;1.60;0.88;;;15.90;99.90;;;;;;4995085;28;20117;-35
2023/10/22 05:24:48;;;;;;;1.65;0.82;;;15.90;99.90;;;;;;4995185;28;20026;-37
2023/10/22 05:27:14;;;;;;;1.52;0.80;;;15.90;99.90;;;;;;4995094;28;20089;-35
2023/10/22 05:29:39;;;;;;;1.33;0.70;;;15.90;99.90;;;;;;4995067;28;20027;-38
2023/10/22 05:32:05;;;;;;;1.50;0.82;;;15.90;99.90;;;;;;4995247;28;20484;-37
2023/10/22 05:34:31;;;;;;;1.52;0.75;;;15.90;99.90;;;;;;4995118;28;20105;-38
2023/10/22 05:36:57;;;;;;;2.17;0.85;;;15.90;99.90;;;;;;4994583;28;20391;-38
2023/10/22 05:39:23;;;;;;;1.70;0.90;;;15.80;99.90;;;;;;4994998;28;20102;-39
2023/10/22 05:41:49;;;;;;;1.02;0.73;;;15.80;99.90;;;;;;4994833;28;20026;-37
2023/10/22 05:44:14;;;;;;;1.90;0.60;;;15.80;99.90;;;;;;4994630;28;20495;-37
2023/10/22 05:46:41;;;;;;;1.55;0.98;;;15.80;99.90;;;;;;4994520;28;20035;-40
2023/10/22 05:49:09;;;;;;;1.67;0.82;;;15.80;99.90;;;;;;4994780;28;20705;-40
2023/10/22 05:51:35;;;;;;;1.85;0.90;;;15.80;99.90;;;;;;4994659;28;20365;-38
2023/10/22 05:54:01;;;;;;;1.63;0.68;;;15.80;99.90;;;;;;4994561;28;20026;-40
2023/10/22 05:56:28;;;;;;;0.77;0.50;;;15.80;99.90;;;;;;4994309;28;20040;-38
2023/10/22 05:58:54;;;;;;;1.90;0.70;;;15.80;99.90;;;;;;4994549;28;20023;-39
2023/10/22 06:01:19;;;;;;;2.28;0.80;;;15.80;99.90;;;;;;4994305;28;20027;-38
2023/10/22 06:03:45;;;;;;;1.95;0.70;;;15.80;99.90;;;;;;4993648;28;20030;-40
2023/10/22 06:06:11;;;;;;;1.63;0.98;;;15.80;99.90;;;;;;4992959;28;20026;-40
2023/10/22 06:08:36;;;;;;;1.30;0.55;;;15.80;99.90;;;;;;4994414;28;20491;-42
2023/10/22 06:11:04;;;;;;;1.40;0.70;;;15.80;99.90;;;;;;4994295;28;20062;-40
2023/10/22 06:13:30;;;;;;;1.10;0.52;;;15.80;99.90;;;;;;4994198;28;20026;-40
2023/10/22 06:15:57;;;;;;;1.20;0.70;;;15.80;99.90;;;;;;4993879;28;20019;-41
2023/10/22 06:18:23;;;;;;;1.13;0.70;;;15.80;99.90;;;;;;4994106;28;20445;-38
2023/10/22 06:20:49;;;;;;;1.23;0.70;;;15.80;99.90;;;;;;4994045;28;20536;-37
2023/10/22 06:23:15;;;;;;;2.00;0.70;;;15.80;99.90;;;;;;4994114;28;20061;-40
2023/10/22 06:25:44;;;;;;;4.50;0.80;;;15.80;99.90;;;;;;4993969;28;20042;-42
2023/10/22 06:28:10;;;;;;;3.22;0.70;;;15.80;99.90;;;;;;4993906;28;20022;-42
2023/10/22 06:30:35;;;;;;;2.38;0.82;;;15.80;99.90;;;;;;4993898;28;20419;-40
2023/10/22 06:33:02;;;;;;;1.67;0.50;;;15.80;99.90;;;;;;4993877;28;20117;-41
2023/10/22 06:35:29;;;;;;;1.88;0.80;;;15.80;99.90;;;;;;4993825;28;20379;-40
2023/10/22 06:37:54;;;;;;;3.67;0.70;;;15.80;99.90;;;;;;4993706;28;20113;-40
2023/10/22 06:40:21;;;;;;;1.35;0.73;;;15.80;99.90;;;;;;4993799;28;20105;-37
2023/10/22 06:42:48;;;;;;;1.90;0.68;;;15.80;99.90;;;;;;4993498;28;20034;-38
2023/10/22 06:45:14;;;;;;;1.63;0.70;;;15.80;99.90;;;;;;4993531;28;20027;-37
2023/10/22 06:47:40;;;;;;;2.00;0.68;;;15.80;99.90;;;;;;4992262;28;20034;-38
2023/10/22 06:50:08;;;;;;;2.22;0.80;;;15.80;99.90;;;;;;4993873;28;20519;-37
2023/10/22 06:52:34;;;;;;;1.65;0.70;;;15.80;99.90;;;;;;4993512;28;20061;-39
2023/10/22 06:55:00;;;;;;;2.10;0.70;;;15.80;99.90;;;;;;4993465;28;20030;-36
2023/10/22 06:57:26;;;;;;;0.85;0.43;;;15.90;99.90;;;;;;4993315;28;20057;-36
2023/10/22 06:59:52;;;;;;;1.92;0.60;;;15.90;99.90;;;;;;4993304;28;20109;-35
2023/10/22 07:02:19;;;;;;;4.22;0.70;;;15.90;99.90;;;;;;4993281;28;20097;-35
2023/10/22 07:04:47;;;;;;;1.95;0.70;;;15.90;99.90;;;;;;4993210;28;20022;-35
2023/10/22 07:07:13;;;;;;;0.95;0.60;;;15.90;99.90;;;;;;4993224;28;20102;-35
2023/10/22 07:09:38;;;;;;;2.70;0.90;;;15.90;99.90;;;;;;4993196;28;20467;-35
2023/10/22 07:12:04;;;;;;;1.98;0.70;;;16.00;99.90;;;;;;4993068;28;20031;-35
2023/10/22 07:14:30;;;;;;;1.05;0.47;;;16.00;99.90;;;;;;4992578;28;20387;-36
2023/10/22 07:16:56;;;;;;;1.17;0.57;;;16.00;99.90;;;;;;4992320;28;20027;-37
2023/10/22 07:19:22;;;;;;;2.38;0.50;;;16.00;99.90;;;;;;4993099;28;20101;-35
2023/10/22 07:21:48;;;;;;;1.63;0.60;;;16.00;99.90;;;;;;4992997;28;20461;-37
2023/10/22 07:24:13;;;;;;;0.80;0.50;;;16.00;99.90;;;;;;4992898;28;20027;-39
2023/10/22 07:26:39;;;;;;;1.52;0.50;;;16.00;99.90;;;;;;4993182;28;20033;-34
2023/10/22 07:29:04;;;;;;;1.27;0.60;;;16.00;99.90;;;;;;4993097;28;20033;-49
2023/10/22 07:31:33;;;;;;;1.67;0.60;;;16.10;99.90;;;;;;4992874;28;20034;-44
2023/10/22 07:33:59;;;;;;;0.70;0.43;;;16.10;99.90;;;;;;4975842;28;20037;-43
2023/10/22 07:36:24;;;;;;;1.08;0.60;;;16.10;99.90;;;;;;4991405;28;20026;-43
2023/10/22 07:38:52;;;;;;;1.58;0.68;;;16.10;99.90;;;;;;4992699;28;20030;-39
2023/10/22 07:41:19;;;;;;;0.93;0.60;;;16.10;99.90;;;;;;4992478;28;20519;-40
2023/10/22 07:43:46;;;;;;;0.45;0.35;;;16.10;99.90;;;;;;4993096;28;20060;-38
2023/10/22 07:46:15;;;;;;;0.80;0.60;;;16.10;99.90;;;;;;4992484;28;20018;-38
2023/10/22 07:48:42;;;;;;;1.52;0.63;;;16.20;99.90;;;;;;4992815;28;20022;-38
2023/10/22 07:51:12;;;;;;;1.00;0.60;;;16.20;99.90;;;;;;4992674;28;20019;-37
2023/10/22 07:53:38;;;;;;;0.88;0.50;;;16.20;99.90;;;;;;4992426;28;20391;-37
2023/10/22 07:56:05;;;;;;;1.75;0.60;;;16.20;99.90;;;;;;4992040;28;20022;-37
2023/10/22 07:58:31;;;;;;;1.73;0.75;;;16.20;99.90;;;;;;4992445;28;20089;-38
2023/10/22 08:00:56;;;;;;;1.27;0.50;;;16.20;99.90;;;;;;4990965;28;20420;-37
2023/10/22 08:03:22;;;;;;;0.82;0.52;;;16.30;99.90;;;;;;4992182;28;20069;-37
2023/10/22 08:05:47;;;;;;;1.08;0.55;;;16.30;99.90;;;;;;4992172;28;20030;-40
2023/10/22 08:08:13;;;;;;;1.02;0.52;;;16.20;99.90;;;;;;4992221;28;20035;-39
2023/10/22 08:10:39;;;;;;;1.83;0.65;;;16.30;99.90;;;;;;4992139;28;20030;-39
2023/10/22 08:13:04;;;;;;;0.75;0.45;;;16.30;99.90;;;;;;4992151;28;20037;-39
2023/10/22 08:15:30;;;;;;;0.90;0.50;;;16.30;99.90;;;;;;4992161;28;20442;-42
2023/10/22 08:17:55;;;;;;;1.67;0.63;;;16.30;99.90;;;;;;4992032;28;20033;-40
2023/10/22 08:20:21;;;;;;;1.45;0.60;;;16.30;99.90;;;;;;4992072;28;20030;-40
2023/10/22 08:22:47;;;;;;;1.10;0.47;;;16.30;99.90;;;;;;4992040;28;20110;-40
2023/10/22 08:25:12;;;;;;;0.63;0.40;;;16.30;99.90;;;;;;4991986;28;20387;-44
2023/10/22 08:27:38;;;;;;;1.50;0.68;;;16.40;99.90;;;;;;4991716;28;20026;-45
2023/10/22 08:30:04;;;;;;;2.15;0.60;;;16.40;99.90;;;;;;4991986;28;20391;-39
2023/10/22 08:32:33;;;;;;;1.40;0.60;;;16.40;99.90;;;;;;4991928;28;20097;-41
2023/10/22 08:34:59;;;;;;;2.15;0.68;;;16.40;99.90;;;;;;4991953;28;20026;-38
2023/10/22 08:37:25;;;;;;;1.88;0.63;;;16.40;99.90;;;;;;4991785;28;20038;-39
2023/10/22 08:39:50;;;;;;;1.00;0.47;;;16.50;99.90;;;;;;4991885;28;20026;-38
2023/10/22 08:42:21;;;;;;;0.68;0.50;;;16.40;99.90;;;;;;4991716;28;20026;-39
2023/10/22 08:44:49;;;;;;;1.55;0.52;;;16.40;99.90;;;;;;4991766;28;20407;-39
2023/10/22 08:47:16;;;;;;;0.90;0.45;;;16.50;99.90;;;;;;4989987;28;20038;-41
2023/10/22 08:49:42;;;;;;;1.60;0.50;;;16.50;99.90;;;;;;4991831;28;20038;-38
2023/10/22 08:52:08;;;;;;;1.30;0.63;;;16.50;99.90;;;;;;4991621;28;20507;-37
2023/10/22 08:54:36;;;;;;;1.00;0.52;;;16.50;99.90;;;;;;4991774;28;20156;-37
2023/10/22 08:57:02;;;;;;;0.93;0.47;;;16.60;99.90;;;;;;4991507;28;20518;-37
2023/10/22 08:59:28;;;;;;;1.55;0.60;;;16.60;99.90;;;;;;4991772;28;20053;-36
2023/10/22 09:01:56;;;;;;;1.17;0.50;;;16.60;99.90;;;;;;4991643;28;20050;-37
2023/10/22 09:04:22;;;;;;;1.45;0.50;;;16.60;99.90;;;;;;4991512;28;20069;-36
2023/10/22 09:06:52;;;;;;;0.98;0.50;;;16.60;99.90;;;;;;4991912;28;20026;-37
2023/10/22 09:09:35;;;;;;;1.38;0.60;;;16.60;99.90;;;;;;4991633;28;20053;-37
2023/10/22 09:12:02;;;;;;;1.33;0.38;;;16.60;99.90;;;;;;4991525;28;20026;-34
2023/10/22 09:14:28;;;;;;;1.77;0.60;;;16.60;99.90;;;;;;4991619;28;20030;-37
2023/10/22 09:16:54;;;;;;;2.00;0.60;;;16.60;99.90;;;;;;4991367;28;20088;-34
2023/10/22 09:19:36;;;;;;;1.05;0.60;;;16.70;99.90;;;;;;4991503;28;20026;-34
2023/10/22 09:22:05;;;;;;;1.33;0.63;;;16.70;99.90;;;;;;4991605;28;20022;-34
2023/10/22 09:24:47;;;;;;;1.65;0.52;;;16.70;99.90;;;;;;4991433;28;20105;-35
2023/10/22 09:27:23;;;;;;;0.95;0.43;;;16.70;99.90;;;;;;4991407;28;20113;-37
2023/10/22 09:29:49;;;;;;;1.50;0.60;;;16.70;99.90;;;;;;4991427;28;20054;-37
2023/10/22 09:32:15;;;;;;;1.23;0.40;;;16.70;99.90;;;;;;4991369;28;20523;-37
2023/10/22 09:34:41;;;;;;;1.20;0.60;;;16.70;99.90;;;;;;4991352;28;20026;-37
2023/10/22 09:37:07;;;;;;;2.10;0.80;;;16.70;99.90;;;;;;4991213;28;20069;-37
2023/10/22 09:39:42;;;;;;;1.63;0.50;;;16.70;99.90;;;;;;4993875;28;20412;-37
2023/10/22 09:42:09;;;;;;;1.52;0.70;;;16.70;99.90;;;;;;4994499;28;20022;-37
2023/10/22 09:44:37;;;;;;;1.85;0.60;;;16.80;99.90;;;;;;4994797;28;20050;-38
2023/10/22 09:47:06;;;;;;;2.08;0.77;;;16.80;99.90;;;;;;4993358;28;20142;-36
2023/10/22 09:49:33;;;;;;;5.25;0.60;;;16.70;99.90;;;;;;4994788;28;20053;-37
2023/10/22 09:52:04;;;;;;;1.83;0.60;;;16.80;99.90;;;;;;4994667;28;20088;-37
2023/10/22 09:54:37;;;;;;;1.98;0.60;;;16.80;99.90;;;;;;4994648;28;20030;-37
2023/10/22 09:57:13;;;;;;;2.35;0.57;;;16.70;99.90;;;;;;4994831;28;20031;-38
2023/10/22 09:59:40;;;;;;;9.65;1.45;;;16.70;99.90;;;;;;4994605;28;20026;-37
2023/10/22 10:02:16;;;;;;;5.25;1.35;;;16.70;99.90;;;;;;4994382;28;20026;-38
2023/10/22 10:04:46;;;;;;;9.02;1.50;;;16.60;99.40;;;;;;4994376;28;20018;-37
2023/10/22 10:07:12;;;;;;;7.50;1.70;;;16.60;99.90;;;;;;4994181;28;20026;-37
2023/10/22 10:09:39;;;;;;;8.05;1.27;;;16.60;99.90;;;;;;4994385;28;20030;-38
2023/10/22 10:12:08;;;;;;;5.18;1.10;;;16.60;99.90;;;;;;4994350;28;20113;-36
2023/10/22 10:14:37;;;;;;;13.13;1.85;;;16.60;99.90;;;;;;4994292;28;20019;-38
2023/10/22 10:17:03;;;;;;;23.05;1.73;;;16.70;99.90;;;;;;4994057;28;20054;-39
2023/10/22 10:19:29;;;;;;;8.63;1.75;;;16.60;98.70;;;;;;4994224;28;20018;-40
2023/10/22 10:21:55;;;;;;;6.65;1.40;;;16.60;98.60;;;;;;4994086;28;20034;-39
2023/10/22 10:24:26;;;;;;;13.73;1.50;;;16.60;99.10;;;;;;4994044;28;20490;-39
2023/10/22 10:26:57;;;;;;;7.57;1.38;;;16.70;99.70;;;;;;4993837;28;20495;-39
2023/10/22 10:29:24;;;;;;;6.07;1.50;;;16.80;99.80;;;;;;4994012;28;20033;-40
2023/10/22 10:31:51;;;;;;;12.85;1.73;;;16.80;99.90;;;;;;4993981;28;20030;-39
2023/10/22 10:34:26;;;;;;;8.07;1.40;;;16.90;99.90;;;;;;4993778;28;20031;-41
2023/10/22 10:36:52;;;;;;;10.73;1.50;;;16.90;99.90;;;;;;4993673;28;20030;-42
2023/10/22 10:39:36;;;;;;;6.55;1.10;;;16.90;99.90;;;;;;4993864;28;20109;-39
2023/10/22 10:42:02;;;;;;;8.10;1.30;;;16.90;99.90;;;;;;4993643;28;20030;-45
2023/10/22 10:44:31;;;;;;;5.25;1.27;;;16.90;99.90;;;;;;4993710;28;20030;-40
2023/10/22 10:47:22;;;;;;;5.25;1.20;;;16.80;99.90;;;;;;4993439;28;20031;-39
2023/10/22 10:50:02;;;;;;;6.15;1.35;;;16.80;99.90;;;;;;4993753;28;20030;-38
2023/10/22 10:52:30;;;;;;;4.68;1.17;;;16.90;99.90;;;;;;4993631;28;20037;-38
2023/10/22 10:54:59;;;;;;;5.18;1.30;;;16.90;99.90;;;;;;4993389;28;20029;-39
2023/10/22 10:57:39;;;;;;;5.55;1.02;;;16.90;99.90;;;;;;4993349;28;20041;-43
2023/10/22 11:00:09;;;;;;;6.82;1.30;;;16.90;99.90;;;;;;4993648;28;20022;-39
2023/10/22 11:02:42;;;;;;;3.78;0.95;;;17.00;99.90;;;;;;4993296;28;20018;-42
2023/10/22 11:05:08;;;;;;;6.72;1.33;;;17.00;99.90;;;;;;4993568;28;20022;-42
2023/10/22 11:07:34;;;;;;;5.47;1.20;;;17.20;99.90;;;;;;4993112;28;20022;-41
2023/10/22 11:10:10;;;;;;;5.00;1.00;;;17.10;99.90;;;;;;4992082;28;20072;-38
2023/10/22 11:12:39;;;;;;;4.00;1.00;;;17.10;99.90;;;;;;4992168;28;20168;-36
2023/10/22 11:15:09;;;;;;;5.20;0.90;;;17.20;99.90;;;;;;4993181;28;20026;-39
2023/10/22 11:17:35;;;;;;;3.65;1.02;;;17.20;99.90;;;;;;4991644;28;20033;-37
2023/10/22 11:20:01;;;;;;;4.45;1.20;;;17.30;99.90;;;;;;4992977;28;20038;-37
2023/10/22 11:22:27;;;;;;;5.45;1.00;;;17.30;99.90;;;;;;4992895;28;20037;-37
2023/10/22 11:24:55;;;;;;;4.07;1.20;;;17.30;99.90;;;;;;4992840;28;20097;-38
2023/10/22 11:27:22;;;;;;;7.03;1.27;;;17.40;99.90;;;;;;4992799;28;20033;-37
2023/10/22 11:29:49;;;;;;;4.38;1.05;;;17.40;99.90;;;;;;4992928;28;20112;-39
2023/10/22 11:32:16;;;;;;;4.18;1.05;;;17.40;99.90;;;;;;4992810;28;20553;-36
2023/10/22 11:35:01;;;;;;;3.30;1.00;;;17.40;99.90;;;;;;4992581;28;20411;-39
2023/10/22 11:37:41;;;;;;;;;;;17.50;99.90;;;;;;4993065;28;20026;-37
2023/10/22 11:40:24;;;;;;;4.13;1.20;;;17.50;99.90;;;;;;4992817;28;19913;-37
2023/10/22 11:42:50;;;;;;;5.03;1.30;;;17.50;99.90;;;;;;4992403;28;20049;-41
2023/10/22 11:45:16;;;;;;;4.65;1.25;;;17.50;99.90;;;;;;4992389;28;20030;-40
2023/10/22 11:47:42;;;;;;;3.67;1.08;;;17.50;99.90;;;;;;4992466;28;20033;-37
2023/10/22 11:50:09;;;;;;;4.45;1.40;;;17.50;99.90;;;;;;4991215;28;20038;-39
2023/10/22 11:52:35;;;;;;;4.00;1.13;;;17.50;99.90;;;;;;4992398;28;20030;-38
2023/10/22 11:55:08;;;;;;;2.78;0.70;;;17.60;99.90;;;;;;4992826;28;20137;-41
2023/10/22 11:57:37;;;;;;;4.35;1.20;;;17.60;99.90;;;;;;4992223;28;20037;-38
2023/10/22 12:00:12;;;;;;;1.92;0.80;;;17.60;99.90;;;;;;4992365;28;20027;-39
2023/10/22 12:02:42;;;;;;;3.25;1.10;;;17.60;99.90;;;;;;4991757;28;20069;-37
2023/10/22 12:05:09;;;;;;;3.83;0.85;;;17.60;99.90;;;;;;4992186;28;20019;-37
2023/10/22 12:07:34;;;;;;;2.72;0.85;;;17.60;99.90;;;;;;4992114;28;20026;-37
2023/10/22 12:10:00;;;;;;;2.65;0.88;;;17.60;99.90;;;;;;4992149;28;20030;-38
2023/10/22 12:12:26;;;;;;;3.20;0.73;;;17.50;99.90;;;;;;4992116;28;20357;-37
2023/10/22 12:14:51;;;;;;;2.88;0.90;;;17.50;99.90;;;;;;4992250;28;20065;-37
2023/10/22 12:17:17;;;;;;;4.00;1.00;;;17.50;99.90;;;;;;4992002;28;20487;-39
2023/10/22 12:19:43;;;;;;;4.07;0.90;;;17.60;99.90;;;;;;4992076;28;20033;-42
2023/10/22 12:22:09;;;;;;;2.75;1.00;;;17.50;99.90;;;;;;4991934;28;20419;-36
2023/10/22 12:24:35;;;;;;;2.60;0.95;;;17.60;99.90;;;;;;4991830;28;20096;-40
2023/10/22 12:27:01;;;;;;;4.90;0.98;;;17.60;99.90;;;;;;4991786;28;20484;-37
2023/10/22 12:29:26;;;;;;;3.08;0.90;;;17.60;99.90;;;;;;4992008;28;20095;-38
2023/10/22 12:31:52;;;;;;;2.80;0.95;;;17.60;99.90;;;;;;4991932;28;20048;-38
2023/10/22 12:34:18;;;;;;;2.72;0.93;;;17.60;99.90;;;;;;4991819;28;20077;-39
2023/10/22 12:36:44;;;;;;;3.42;0.80;;;17.60;99.90;;;;;;4991663;28;20084;-44
2023/10/22 12:39:10;;;;;;;4.68;0.90;;;17.60;99.90;;;;;;4991733;28;20394;-36
2023/10/22 12:41:36;;;;;;;4.68;1.15;;;17.60;99.10;;;;;;4991879;28;20030;-36
2023/10/22 12:44:03;;;;;;;3.95;0.70;;;17.50;96.40;;;;;;4991749;28;20037;-37
2023/10/22 12:46:29;;;;;;;4.53;0.90;;;17.50;97.70;;;;;;4991748;28;20027;-37